sensor_id;sensor_type;location;lat;lon;timestamp;temperature;humidity
41447;DHT22;27185;52.040;4.490;2024-02-23T00:00:35;8.70;99.90
41447;DHT22;27185;52.040;4.490;2024-02-23T00:03:21;8.70;99.90
41447;DHT22;27185;52.040;4.490;2024-02-23T00:06:09;8.80;99.90
41447;DHT22;27185;52.040;4.490;2024-02-23T00:08:55;8.80;99.90
41447;DHT22;27185;52.040;4.490;2024-02-23T00:11:41;8.80;99.90
41447;DHT22;27185;52.040;4.490;2024-02-23T00:14:30;8.90;99.90
41447;DHT22;27185;52.040;4.490;2024-02-23T00:17:16;8.90;99.90
41447;DHT22;27185;52.040;4.490;2024-02-23T00:20:02;8.90;99.90
41447;DHT22;27185;52.040;4.490;2024-02-23T00:22:48;8.90;99.90
41447;DHT22;27185;52.040;4.490;2024-02-23T00:25:34;8.90;99.90
41447;DHT22;27185;52.040;4.490;2024-02-23T00:28:20;8.90;99.90
41447;DHT22;27185;52.040;4.490;2024-02-23T00:31:06;8.80;99.90
41447;DHT22;27185;52.040;4.490;2024-02-23T00:33:55;8.90;99.90
41447;DHT22;27185;52.040;4.490;2024-02-23T00:36:42;8.90;99.90
41447;DHT22;27185;52.040;4.490;2024-02-23T00:39:27;8.90;99.90
41447;DHT22;27185;52.040;4.490;2024-02-23T00:42:13;8.90;99.90
41447;DHT22;27185;52.040;4.490;2024-02-23T00:44:59;8.90;99.90
41447;DHT22;27185;52.040;4.490;2024-02-23T00:47:54;9.00;99.90
41447;DHT22;27185;52.040;4.490;2024-02-23T00:50:40;9.00;99.90
41447;DHT22;27185;52.040;4.490;2024-02-23T00:53:26;9.00;99.90
41447;DHT22;27185;52.040;4.490;2024-02-23T00:56:14;9.00;99.90
41447;DHT22;27185;52.040;4.490;2024-02-23T00:59:02;8.90;99.90
41447;DHT22;27185;52.040;4.490;2024-02-23T01:01:48;9.00;99.90
41447;DHT22;27185;52.040;4.490;2024-02-23T01:04:34;9.00;99.90
41447;DHT22;27185;52.040;4.490;2024-02-23T01:07:20;9.00;99.90
41447;DHT22;27185;52.040;4.490;2024-02-23T01:17:47;8.50;99.90
41447;DHT22;27185;52.040;4.490;2024-02-23T01:20:34;8.10;99.90
41447;DHT22;27185;52.040;4.490;2024-02-23T01:23:20;7.80;99.90
41447;DHT22;27185;52.040;4.490;2024-02-23T01:26:16;7.60;99.90
41447;DHT22;27185;52.040;4.490;2024-02-23T01:29:12;7.60;99.90
41447;DHT22;27185;52.040;4.490;2024-02-23T01:32:13;7.40;99.90
41447;DHT22;27185;52.040;4.490;2024-02-23T01:35:08;7.40;99.90
41447;DHT22;27185;52.040;4.490;2024-02-23T01:38:02;7.30;99.90
41447;DHT22;27185;52.040;4.490;2024-02-23T01:41:03;7.30;99.90
41447;DHT22;27185;52.040;4.490;2024-02-23T01:44:02;7.30;99.90
41447;DHT22;27185;52.040;4.490;2024-02-23T01:47:03;7.40;99.90
41447;DHT22;27185;52.040;4.490;2024-02-23T01:49:56;7.40;99.90
41447;DHT22;27185;52.040;4.490;2024-02-23T01:52:46;7.40;99.90
41447;DHT22;27185;52.040;4.490;2024-02-23T01:55:50;7.40;99.90
41447;DHT22;27185;52.040;4.490;2024-02-23T01:58:48;7.50;99.90
41447;DHT22;27185;52.040;4.490;2024-02-23T02:01:37;7.50;99.90
41447;DHT22;27185;52.040;4.490;2024-02-23T02:04:23;7.50;99.90
41447;DHT22;27185;52.040;4.490;2024-02-23T02:07:22;7.40;99.90
41447;DHT22;27185;52.040;4.490;2024-02-23T02:10:36;7.50;99.90
41447;DHT22;27185;52.040;4.490;2024-02-23T02:13:46;7.50;99.90
41447;DHT22;27185;52.040;4.490;2024-02-23T02:16:38;7.50;99.90
41447;DHT22;27185;52.040;4.490;2024-02-23T02:19:32;7.50;99.90
41447;DHT22;27185;52.040;4.490;2024-02-23T02:22:17;7.50;99.90
41447;DHT22;27185;52.040;4.490;2024-02-23T02:25:06;7.50;99.90
41447;DHT22;27185;52.040;4.490;2024-02-23T02:27:52;7.50;99.90
41447;DHT22;27185;52.040;4.490;2024-02-23T02:30:38;7.50;99.90
41447;DHT22;27185;52.040;4.490;2024-02-23T02:33:24;7.50;99.90
41447;DHT22;27185;52.040;4.490;2024-02-23T02:36:10;7.60;99.90
41447;DHT22;27185;52.040;4.490;2024-02-23T02:38:59;7.60;99.90
41447;DHT22;27185;52.040;4.490;2024-02-23T02:41:48;7.70;99.90
41447;DHT22;27185;52.040;4.490;2024-02-23T02:44:34;7.70;99.90
41447;DHT22;27185;52.040;4.490;2024-02-23T02:47:20;7.80;99.90
41447;DHT22;27185;52.040;4.490;2024-02-23T02:50:09;7.80;99.90
41447;DHT22;27185;52.040;4.490;2024-02-23T02:52:55;7.90;99.90
41447;DHT22;27185;52.040;4.490;2024-02-23T02:55:42;7.90;99.90
41447;DHT22;27185;52.040;4.490;2024-02-23T02:58:28;7.90;99.90
41447;DHT22;27185;52.040;4.490;2024-02-23T03:01:14;7.90;99.90
41447;DHT22;27185;52.040;4.490;2024-02-23T03:04:00;7.90;99.90
41447;DHT22;27185;52.040;4.490;2024-02-23T03:06:46;7.90;99.90
41447;DHT22;27185;52.040;4.490;2024-02-23T03:09:32;7.90;99.90
41447;DHT22;27185;52.040;4.490;2024-02-23T03:12:18;7.80;99.90
41447;DHT22;27185;52.040;4.490;2024-02-23T03:15:04;7.80;99.90
41447;DHT22;27185;52.040;4.490;2024-02-23T03:17:51;7.70;99.90
41447;DHT22;27185;52.040;4.490;2024-02-23T03:20:41;7.70;99.90
41447;DHT22;27185;52.040;4.490;2024-02-23T03:23:27;7.70;99.90
41447;DHT22;27185;52.040;4.490;2024-02-23T03:26:14;7.70;99.90
41447;DHT22;27185;52.040;4.490;2024-02-23T03:29:02;7.70;99.90
41447;DHT22;27185;52.040;4.490;2024-02-23T03:31:48;7.70;99.90
41447;DHT22;27185;52.040;4.490;2024-02-23T03:34:36;7.70;99.90
41447;DHT22;27185;52.040;4.490;2024-02-23T03:37:25;7.70;99.90
41447;DHT22;27185;52.040;4.490;2024-02-23T03:40:11;7.60;99.90
41447;DHT22;27185;52.040;4.490;2024-02-23T03:42:58;7.60;99.90
41447;DHT22;27185;52.040;4.490;2024-02-23T03:45:43;7.50;99.90
41447;DHT22;27185;52.040;4.490;2024-02-23T03:48:29;7.50;99.90
41447;DHT22;27185;52.040;4.490;2024-02-23T03:51:15;7.50;99.90
41447;DHT22;27185;52.040;4.490;2024-02-23T03:54:01;7.40;99.90
41447;DHT22;27185;52.040;4.490;2024-02-23T03:56:48;7.40;99.90
41447;DHT22;27185;52.040;4.490;2024-02-23T03:59:36;7.40;99.90
41447;DHT22;27185;52.040;4.490;2024-02-23T04:02:23;7.30;99.90
41447;DHT22;27185;52.040;4.490;2024-02-23T04:05:10;7.30;99.90
41447;DHT22;27185;52.040;4.490;2024-02-23T04:07:55;7.20;99.90
41447;DHT22;27185;52.040;4.490;2024-02-23T04:10:41;7.20;99.90
41447;DHT22;27185;52.040;4.490;2024-02-23T04:13:27;7.20;99.90
41447;DHT22;27185;52.040;4.490;2024-02-23T04:16:13;7.20;99.90
41447;DHT22;27185;52.040;4.490;2024-02-23T04:18:59;7.20;99.90
41447;DHT22;27185;52.040;4.490;2024-02-23T04:21:45;7.20;99.90
41447;DHT22;27185;52.040;4.490;2024-02-23T04:24:31;7.20;99.90
41447;DHT22;27185;52.040;4.490;2024-02-23T04:27:17;7.10;99.90
41447;DHT22;27185;52.040;4.490;2024-02-23T04:30:04;7.10;99.90
41447;DHT22;27185;52.040;4.490;2024-02-23T04:32:50;7.10;99.90
41447;DHT22;27185;52.040;4.490;2024-02-23T04:35:36;7.10;99.90
41447;DHT22;27185;52.040;4.490;2024-02-23T04:38:22;7.10;99.90
41447;DHT22;27185;52.040;4.490;2024-02-23T04:41:07;7.20;99.90
41447;DHT22;27185;52.040;4.490;2024-02-23T04:43:53;7.30;99.90
41447;DHT22;27185;52.040;4.490;2024-02-23T04:46:45;7.30;99.90
41447;DHT22;27185;52.040;4.490;2024-02-23T04:49:34;7.40;99.90
41447;DHT22;27185;52.040;4.490;2024-02-23T04:52:23;7.40;99.90
41447;DHT22;27185;52.040;4.490;2024-02-23T04:55:08;7.50;99.90
41447;DHT22;27185;52.040;4.490;2024-02-23T04:57:54;7.50;99.90
41447;DHT22;27185;52.040;4.490;2024-02-23T05:00:43;7.60;99.90
41447;DHT22;27185;52.040;4.490;2024-02-23T05:03:29;7.60;99.90
41447;DHT22;27185;52.040;4.490;2024-02-23T05:06:15;7.50;99.90
41447;DHT22;27185;52.040;4.490;2024-02-23T05:09:02;7.60;99.90
41447;DHT22;27185;52.040;4.490;2024-02-23T05:11:48;7.60;99.90
41447;DHT22;27185;52.040;4.490;2024-02-23T05:14:34;7.60;99.90
41447;DHT22;27185;52.040;4.490;2024-02-23T05:17:20;7.60;99.90
41447;DHT22;27185;52.040;4.490;2024-02-23T05:20:07;7.60;99.90
41447;DHT22;27185;52.040;4.490;2024-02-23T05:22:58;7.60;99.90
41447;DHT22;27185;52.040;4.490;2024-02-23T05:25:46;7.60;99.90
41447;DHT22;27185;52.040;4.490;2024-02-23T05:28:32;7.50;99.90
41447;DHT22;27185;52.040;4.490;2024-02-23T05:31:18;7.50;99.90
41447;DHT22;27185;52.040;4.490;2024-02-23T05:34:05;7.50;99.90
41447;DHT22;27185;52.040;4.490;2024-02-23T05:36:51;7.50;99.90
41447;DHT22;27185;52.040;4.490;2024-02-23T05:39:37;7.60;99.90
41447;DHT22;27185;52.040;4.490;2024-02-23T05:42:25;7.60;99.90
41447;DHT22;27185;52.040;4.490;2024-02-23T05:45:11;7.60;99.90
41447;DHT22;27185;52.040;4.490;2024-02-23T05:47:57;7.70;99.90
41447;DHT22;27185;52.040;4.490;2024-02-23T05:50:43;7.80;99.90
41447;DHT22;27185;52.040;4.490;2024-02-23T05:53:32;7.80;99.90
41447;DHT22;27185;52.040;4.490;2024-02-23T05:56:18;7.80;99.90
41447;DHT22;27185;52.040;4.490;2024-02-23T05:59:07;7.80;99.90
41447;DHT22;27185;52.040;4.490;2024-02-23T06:01:53;7.80;99.90
41447;DHT22;27185;52.040;4.490;2024-02-23T06:04:42;7.80;99.90
41447;DHT22;27185;52.040;4.490;2024-02-23T06:07:28;7.90;99.90
41447;DHT22;27185;52.040;4.490;2024-02-23T06:10:15;7.90;99.90
41447;DHT22;27185;52.040;4.490;2024-02-23T06:13:01;7.90;99.90
41447;DHT22;27185;52.040;4.490;2024-02-23T06:15:47;7.90;99.90
41447;DHT22;27185;52.040;4.490;2024-02-23T06:18:33;7.80;99.90
41447;DHT22;27185;52.040;4.490;2024-02-23T06:21:20;7.80;99.90
41447;DHT22;27185;52.040;4.490;2024-02-23T06:24:05;7.80;99.90
41447;DHT22;27185;52.040;4.490;2024-02-23T06:26:56;7.90;99.90
41447;DHT22;27185;52.040;4.490;2024-02-23T06:29:43;7.90;99.90
41447;DHT22;27185;52.040;4.490;2024-02-23T06:32:32;7.80;99.90
41447;DHT22;27185;52.040;4.490;2024-02-23T06:35:18;7.80;99.90
41447;DHT22;27185;52.040;4.490;2024-02-23T06:38:04;7.90;99.90
41447;DHT22;27185;52.040;4.490;2024-02-23T06:40:51;7.90;99.90
41447;DHT22;27185;52.040;4.490;2024-02-23T06:43:37;7.90;99.90
41447;DHT22;27185;52.040;4.490;2024-02-23T06:46:23;7.90;99.90
41447;DHT22;27185;52.040;4.490;2024-02-23T06:49:10;7.90;99.90
41447;DHT22;27185;52.040;4.490;2024-02-23T06:51:59;7.80;99.90
41447;DHT22;27185;52.040;4.490;2024-02-23T06:54:48;7.80;99.90
41447;DHT22;27185;52.040;4.490;2024-02-23T06:57:34;7.80;99.90
41447;DHT22;27185;52.040;4.490;2024-02-23T07:00:21;7.80;99.90
41447;DHT22;27185;52.040;4.490;2024-02-23T07:03:07;7.80;99.90
41447;DHT22;27185;52.040;4.490;2024-02-23T07:05:53;7.90;99.90
41447;DHT22;27185;52.040;4.490;2024-02-23T07:08:39;7.80;99.90
41447;DHT22;27185;52.040;4.490;2024-02-23T07:11:25;7.80;99.90
41447;DHT22;27185;52.040;4.490;2024-02-23T07:14:10;7.80;99.90
41447;DHT22;27185;52.040;4.490;2024-02-23T07:16:58;7.70;99.90
41447;DHT22;27185;52.040;4.490;2024-02-23T07:19:44;7.70;99.90
41447;DHT22;27185;52.040;4.490;2024-02-23T07:22:30;7.70;99.90
41447;DHT22;27185;52.040;4.490;2024-02-23T07:25:19;7.60;99.90
41447;DHT22;27185;52.040;4.490;2024-02-23T07:28:08;7.50;99.90
41447;DHT22;27185;52.040;4.490;2024-02-23T07:30:58;7.50;99.90
41447;DHT22;27185;52.040;4.490;2024-02-23T07:33:44;7.40;99.90
41447;DHT22;27185;52.040;4.490;2024-02-23T07:36:29;7.40;99.90
41447;DHT22;27185;52.040;4.490;2024-02-23T07:39:15;7.40;99.90
41447;DHT22;27185;52.040;4.490;2024-02-23T07:42:35;7.30;99.90
41447;DHT22;27185;52.040;4.490;2024-02-23T07:45:42;7.30;99.90
41447;DHT22;27185;52.040;4.490;2024-02-23T07:49:04;7.10;99.90
41447;DHT22;27185;52.040;4.490;2024-02-23T07:52:25;6.90;99.90
41447;DHT22;27185;52.040;4.490;2024-02-23T07:55:23;6.80;99.90
41447;DHT22;27185;52.040;4.490;2024-02-23T07:58:34;6.80;99.90
41447;DHT22;27185;52.040;4.490;2024-02-23T08:01:57;6.80;99.90
41447;DHT22;27185;52.040;4.490;2024-02-23T08:08:46;6.70;99.90
41447;DHT22;27185;52.040;4.490;2024-02-23T08:11:58;6.80;99.90
41447;DHT22;27185;52.040;4.490;2024-02-23T08:18:33;6.80;99.90
41447;DHT22;27185;52.040;4.490;2024-02-23T08:21:48;6.80;99.90
41447;DHT22;27185;52.040;4.490;2024-02-23T08:24:58;6.80;99.90
41447;DHT22;27185;52.040;4.490;2024-02-23T08:28:08;6.80;99.90
41447;DHT22;27185;52.040;4.490;2024-02-23T08:34:19;6.80;99.90
41447;DHT22;27185;52.040;4.490;2024-02-23T08:37:13;6.90;99.90
41447;DHT22;27185;52.040;4.490;2024-02-23T08:40:09;6.90;99.90
41447;DHT22;27185;52.040;4.490;2024-02-23T08:43:45;6.90;99.90
41447;DHT22;27185;52.040;4.490;2024-02-23T08:47:09;7.00;99.90
41447;DHT22;27185;52.040;4.490;2024-02-23T09:10:10;7.00;99.90
41447;DHT22;27185;52.040;4.490;2024-02-23T09:13:25;7.10;99.90
41447;DHT22;27185;52.040;4.490;2024-02-23T09:16:13;7.20;99.90
41447;DHT22;27185;52.040;4.490;2024-02-23T09:19:12;7.20;99.90
41447;DHT22;27185;52.040;4.490;2024-02-23T09:22:38;7.30;99.90
41447;DHT22;27185;52.040;4.490;2024-02-23T09:25:47;7.40;99.90
41447;DHT22;27185;52.040;4.490;2024-02-23T09:28:44;7.50;99.90
41447;DHT22;27185;52.040;4.490;2024-02-23T09:35:56;7.70;99.90
41447;DHT22;27185;52.040;4.490;2024-02-23T09:38:56;7.90;99.90
41447;DHT22;27185;52.040;4.490;2024-02-23T09:41:50;7.90;99.90
41447;DHT22;27185;52.040;4.490;2024-02-23T09:44:39;7.90;99.90
41447;DHT22;27185;52.040;4.490;2024-02-23T09:47:31;8.00;99.90
41447;DHT22;27185;52.040;4.490;2024-02-23T09:50:17;8.10;99.90
41447;DHT22;27185;52.040;4.490;2024-02-23T09:53:06;8.20;99.90
41447;DHT22;27185;52.040;4.490;2024-02-23T09:55:55;8.30;99.90
41447;DHT22;27185;52.040;4.490;2024-02-23T09:58:42;8.40;99.90
41447;DHT22;27185;52.040;4.490;2024-02-23T10:01:32;8.30;99.90
41447;DHT22;27185;52.040;4.490;2024-02-23T10:04:22;8.40;99.90
41447;DHT22;27185;52.040;4.490;2024-02-23T10:07:10;8.50;99.90
41447;DHT22;27185;52.040;4.490;2024-02-23T10:09:58;8.60;99.90
41447;DHT22;27185;52.040;4.490;2024-02-23T10:12:44;8.70;99.90
41447;DHT22;27185;52.040;4.490;2024-02-23T10:15:30;8.80;99.90
41447;DHT22;27185;52.040;4.490;2024-02-23T10:18:19;8.90;99.90
41447;DHT22;27185;52.040;4.490;2024-02-23T10:21:06;9.00;99.90
41447;DHT22;27185;52.040;4.490;2024-02-23T10:23:52;9.10;99.90
41447;DHT22;27185;52.040;4.490;2024-02-23T10:26:38;9.10;99.90
41447;DHT22;27185;52.040;4.490;2024-02-23T10:29:26;9.10;99.90
41447;DHT22;27185;52.040;4.490;2024-02-23T10:32:15;9.20;99.90
41447;DHT22;27185;52.040;4.490;2024-02-23T10:35:01;9.20;99.90
41447;DHT22;27185;52.040;4.490;2024-02-23T10:37:50;9.40;99.90
41447;DHT22;27185;52.040;4.490;2024-02-23T10:40:39;9.50;99.90
41447;DHT22;27185;52.040;4.490;2024-02-23T10:43:33;9.50;99.90
41447;DHT22;27185;52.040;4.490;2024-02-23T10:46:19;9.60;99.90
41447;DHT22;27185;52.040;4.490;2024-02-23T10:49:07;9.60;99.90
41447;DHT22;27185;52.040;4.490;2024-02-23T10:51:53;9.70;99.90
41447;DHT22;27185;52.040;4.490;2024-02-23T10:54:39;9.80;99.90
41447;DHT22;27185;52.040;4.490;2024-02-23T10:57:28;9.80;99.90
41447;DHT22;27185;52.040;4.490;2024-02-23T11:00:15;9.70;99.90
41447;DHT22;27185;52.040;4.490;2024-02-23T11:03:04;9.80;99.90
41447;DHT22;27185;52.040;4.490;2024-02-23T11:05:53;9.80;99.90
41447;DHT22;27185;52.040;4.490;2024-02-23T11:08:39;9.90;99.90
41447;DHT22;27185;52.040;4.490;2024-02-23T11:11:25;10.00;99.90
41447;DHT22;27185;52.040;4.490;2024-02-23T11:14:11;10.00;99.90
41447;DHT22;27185;52.040;4.490;2024-02-23T11:16:57;10.00;99.90
41447;DHT22;27185;52.040;4.490;2024-02-23T11:19:48;10.00;99.90
41447;DHT22;27185;52.040;4.490;2024-02-23T11:22:34;10.10;99.90
41447;DHT22;27185;52.040;4.490;2024-02-23T11:25:26;10.10;99.90
41447;DHT22;27185;52.040;4.490;2024-02-23T11:28:23;10.10;99.90
41447;DHT22;27185;52.040;4.490;2024-02-23T11:31:19;10.10;99.90
41447;DHT22;27185;52.040;4.490;2024-02-23T11:34:08;10.20;99.90
41447;DHT22;27185;52.040;4.490;2024-02-23T11:36:55;10.10;99.90
41447;DHT22;27185;52.040;4.490;2024-02-23T11:39:42;10.20;99.90
41447;DHT22;27185;52.040;4.490;2024-02-23T11:42:28;10.10;99.90
41447;DHT22;27185;52.040;4.490;2024-02-23T11:45:14;10.10;99.90
41447;DHT22;27185;52.040;4.490;2024-02-23T11:48:00;10.10;99.90
41447;DHT22;27185;52.040;4.490;2024-02-23T11:50:48;10.30;99.90
41447;DHT22;27185;52.040;4.490;2024-02-23T11:53:36;10.10;99.90
41447;DHT22;27185;52.040;4.490;2024-02-23T11:56:26;10.20;99.90
41447;DHT22;27185;52.040;4.490;2024-02-23T11:59:13;10.30;99.90
41447;DHT22;27185;52.040;4.490;2024-02-23T12:01:59;10.30;99.90
41447;DHT22;27185;52.040;4.490;2024-02-23T12:04:44;10.40;99.90
41447;DHT22;27185;52.040;4.490;2024-02-23T12:07:30;10.50;99.90
41447;DHT22;27185;52.040;4.490;2024-02-23T12:10:16;10.40;99.90
41447;DHT22;27185;52.040;4.490;2024-02-23T12:13:02;10.40;99.90
41447;DHT22;27185;52.040;4.490;2024-02-23T12:15:54;10.50;99.90
41447;DHT22;27185;52.040;4.490;2024-02-23T12:18:40;10.50;99.90
41447;DHT22;27185;52.040;4.490;2024-02-23T12:21:26;10.50;99.90
41447;DHT22;27185;52.040;4.490;2024-02-23T12:24:12;10.70;99.90
41447;DHT22;27185;52.040;4.490;2024-02-23T12:26:58;10.80;99.90
41447;DHT22;27185;52.040;4.490;2024-02-23T12:29:53;10.80;99.90
41447;DHT22;27185;52.040;4.490;2024-02-23T12:32:39;10.90;99.90
41447;DHT22;27185;52.040;4.490;2024-02-23T12:35:24;11.10;99.90
41447;DHT22;27185;52.040;4.490;2024-02-23T12:38:10;11.10;99.90
41447;DHT22;27185;52.040;4.490;2024-02-23T12:40:56;11.30;99.90
41447;DHT22;27185;52.040;4.490;2024-02-23T12:43:42;11.40;99.90
41447;DHT22;27185;52.040;4.490;2024-02-23T12:46:28;11.50;99.90
41447;DHT22;27185;52.040;4.490;2024-02-23T12:49:13;11.40;99.90
41447;DHT22;27185;52.040;4.490;2024-02-23T12:51:59;11.50;99.90
41447;DHT22;27185;52.040;4.490;2024-02-23T12:54:44;11.40;99.90
41447;DHT22;27185;52.040;4.490;2024-02-23T12:57:30;11.40;99.90
41447;DHT22;27185;52.040;4.490;2024-02-23T13:00:16;11.30;99.90
41447;DHT22;27185;52.040;4.490;2024-02-23T13:03:02;11.30;99.90
41447;DHT22;27185;52.040;4.490;2024-02-23T13:05:48;11.30;99.90
41447;DHT22;27185;52.040;4.490;2024-02-23T13:08:34;11.20;99.90
41447;DHT22;27185;52.040;4.490;2024-02-23T13:11:21;11.20;99.90
41447;DHT22;27185;52.040;4.490;2024-02-23T13:14:07;11.20;99.90
41447;DHT22;27185;52.040;4.490;2024-02-23T13:16:54;11.30;99.90
41447;DHT22;27185;52.040;4.490;2024-02-23T13:19:40;11.20;99.90
41447;DHT22;27185;52.040;4.490;2024-02-23T13:22:27;11.20;99.90
41447;DHT22;27185;52.040;4.490;2024-02-23T13:25:13;11.10;99.90
41447;DHT22;27185;52.040;4.490;2024-02-23T13:28:01;11.20;99.90
41447;DHT22;27185;52.040;4.490;2024-02-23T13:30:46;11.20;99.90
41447;DHT22;27185;52.040;4.490;2024-02-23T13:33:32;11.10;99.90
41447;DHT22;27185;52.040;4.490;2024-02-23T13:36:18;11.10;99.90
41447;DHT22;27185;52.040;4.490;2024-02-23T13:39:03;11.10;99.90
41447;DHT22;27185;52.040;4.490;2024-02-23T13:41:49;11.10;99.90
41447;DHT22;27185;52.040;4.490;2024-02-23T13:44:35;11.10;99.90
41447;DHT22;27185;52.040;4.490;2024-02-23T13:47:20;11.00;99.90
41447;DHT22;27185;52.040;4.490;2024-02-23T13:50:07;11.10;99.90
41447;DHT22;27185;52.040;4.490;2024-02-23T13:52:53;11.10;99.90
41447;DHT22;27185;52.040;4.490;2024-02-23T13:55:39;11.10;99.90
41447;DHT22;27185;52.040;4.490;2024-02-23T13:58:25;11.10;99.90
41447;DHT22;27185;52.040;4.490;2024-02-23T14:01:10;11.10;99.90
41447;DHT22;27185;52.040;4.490;2024-02-23T14:03:56;11.20;99.90
41447;DHT22;27185;52.040;4.490;2024-02-23T14:06:41;11.00;99.90
41447;DHT22;27185;52.040;4.490;2024-02-23T14:09:27;11.00;99.90
41447;DHT22;27185;52.040;4.490;2024-02-23T14:12:12;11.00;99.90
41447;DHT22;27185;52.040;4.490;2024-02-23T14:14:58;10.90;99.90
41447;DHT22;27185;52.040;4.490;2024-02-23T14:17:44;10.80;99.90
41447;DHT22;27185;52.040;4.490;2024-02-23T14:20:29;10.80;99.90
41447;DHT22;27185;52.040;4.490;2024-02-23T14:23:15;10.80;99.90
41447;DHT22;27185;52.040;4.490;2024-02-23T14:26:01;10.80;99.90
41447;DHT22;27185;52.040;4.490;2024-02-23T14:28:46;10.80;99.90
41447;DHT22;27185;52.040;4.490;2024-02-23T14:31:32;10.80;99.90
41447;DHT22;27185;52.040;4.490;2024-02-23T14:34:18;10.70;99.90
41447;DHT22;27185;52.040;4.490;2024-02-23T14:37:05;10.80;99.90
41447;DHT22;27185;52.040;4.490;2024-02-23T14:39:52;10.80;99.90
41447;DHT22;27185;52.040;4.490;2024-02-23T14:42:38;10.80;99.90
41447;DHT22;27185;52.040;4.490;2024-02-23T14:45:24;10.80;99.90
41447;DHT22;27185;52.040;4.490;2024-02-23T14:48:12;10.80;99.90
41447;DHT22;27185;52.040;4.490;2024-02-23T14:50:59;10.70;99.90
41447;DHT22;27185;52.040;4.490;2024-02-23T14:53:45;10.70;99.90
41447;DHT22;27185;52.040;4.490;2024-02-23T14:56:30;10.70;99.90
41447;DHT22;27185;52.040;4.490;2024-02-23T14:59:17;10.70;99.90
41447;DHT22;27185;52.040;4.490;2024-02-23T15:02:02;10.70;99.90
41447;DHT22;27185;52.040;4.490;2024-02-23T15:04:49;10.70;99.90
41447;DHT22;27185;52.040;4.490;2024-02-23T15:07:35;10.70;99.90
41447;DHT22;27185;52.040;4.490;2024-02-23T15:10:21;10.60;99.90
41447;DHT22;27185;52.040;4.490;2024-02-23T15:13:08;10.60;99.90
41447;DHT22;27185;52.040;4.490;2024-02-23T15:15:53;10.70;99.90
41447;DHT22;27185;52.040;4.490;2024-02-23T15:18:39;10.60;99.90
41447;DHT22;27185;52.040;4.490;2024-02-23T15:21:25;10.70;99.90
41447;DHT22;27185;52.040;4.490;2024-02-23T15:24:15;10.70;99.90
41447;DHT22;27185;52.040;4.490;2024-02-23T15:27:03;10.70;99.90
41447;DHT22;27185;52.040;4.490;2024-02-23T15:29:49;10.70;99.90
41447;DHT22;27185;52.040;4.490;2024-02-23T15:32:36;10.70;99.90
41447;DHT22;27185;52.040;4.490;2024-02-23T15:35:22;10.70;99.90
41447;DHT22;27185;52.040;4.490;2024-02-23T15:38:11;10.60;99.90
41447;DHT22;27185;52.040;4.490;2024-02-23T15:40:57;10.70;99.90
41447;DHT22;27185;52.040;4.490;2024-02-23T15:43:43;10.70;99.90
41447;DHT22;27185;52.040;4.490;2024-02-23T15:46:29;10.70;99.90
41447;DHT22;27185;52.040;4.490;2024-02-23T15:49:16;10.80;99.90
41447;DHT22;27185;52.040;4.490;2024-02-23T15:52:04;10.80;99.90
41447;DHT22;27185;52.040;4.490;2024-02-23T15:54:51;10.80;99.90
41447;DHT22;27185;52.040;4.490;2024-02-23T15:57:37;10.80;99.90
41447;DHT22;27185;52.040;4.490;2024-02-23T16:00:24;10.80;99.90
41447;DHT22;27185;52.040;4.490;2024-02-23T16:03:09;10.90;99.90
41447;DHT22;27185;52.040;4.490;2024-02-23T16:05:55;10.80;99.90
41447;DHT22;27185;52.040;4.490;2024-02-23T16:08:45;10.80;99.90
41447;DHT22;27185;52.040;4.490;2024-02-23T16:11:32;10.80;99.90
41447;DHT22;27185;52.040;4.490;2024-02-23T16:14:18;10.80;99.90
41447;DHT22;27185;52.040;4.490;2024-02-23T16:17:07;10.80;99.90
41447;DHT22;27185;52.040;4.490;2024-02-23T16:19:53;10.80;99.90
41447;DHT22;27185;52.040;4.490;2024-02-23T16:22:40;10.70;99.90
41447;DHT22;27185;52.040;4.490;2024-02-23T16:25:27;10.70;99.90
41447;DHT22;27185;52.040;4.490;2024-02-23T16:28:12;10.70;99.90
41447;DHT22;27185;52.040;4.490;2024-02-23T16:30:58;10.70;99.90
41447;DHT22;27185;52.040;4.490;2024-02-23T16:33:44;10.60;99.90
41447;DHT22;27185;52.040;4.490;2024-02-23T16:36:30;10.60;99.90
41447;DHT22;27185;52.040;4.490;2024-02-23T16:39:15;10.50;99.90
41447;DHT22;27185;52.040;4.490;2024-02-23T16:42:01;10.50;99.90
41447;DHT22;27185;52.040;4.490;2024-02-23T16:44:47;10.40;99.90
41447;DHT22;27185;52.040;4.490;2024-02-23T16:47:33;10.30;99.90
41447;DHT22;27185;52.040;4.490;2024-02-23T16:50:19;10.20;99.90
41447;DHT22;27185;52.040;4.490;2024-02-23T16:53:05;10.20;99.90
41447;DHT22;27185;52.040;4.490;2024-02-23T16:55:51;10.10;99.90
41447;DHT22;27185;52.040;4.490;2024-02-23T16:58:37;10.00;99.90
41447;DHT22;27185;52.040;4.490;2024-02-23T17:01:23;9.90;99.90
41447;DHT22;27185;52.040;4.490;2024-02-23T17:04:09;9.90;99.90
41447;DHT22;27185;52.040;4.490;2024-02-23T17:06:55;9.80;99.90
41447;DHT22;27185;52.040;4.490;2024-02-23T17:09:42;9.70;99.90
41447;DHT22;27185;52.040;4.490;2024-02-23T17:12:31;9.60;99.90
41447;DHT22;27185;52.040;4.490;2024-02-23T17:15:18;9.50;99.90
41447;DHT22;27185;52.040;4.490;2024-02-23T17:18:07;9.40;99.90
41447;DHT22;27185;52.040;4.490;2024-02-23T17:20:53;9.40;99.90
41447;DHT22;27185;52.040;4.490;2024-02-23T17:23:39;9.30;99.90
41447;DHT22;27185;52.040;4.490;2024-02-23T17:26:25;9.20;99.90
41447;DHT22;27185;52.040;4.490;2024-02-23T17:29:10;9.10;99.90
41447;DHT22;27185;52.040;4.490;2024-02-23T17:31:57;9.00;99.90
41447;DHT22;27185;52.040;4.490;2024-02-23T17:34:43;9.00;99.90
41447;DHT22;27185;52.040;4.490;2024-02-23T17:37:29;9.00;99.90
41447;DHT22;27185;52.040;4.490;2024-02-23T17:40:14;8.90;99.90
41447;DHT22;27185;52.040;4.490;2024-02-23T17:43:00;8.80;99.90
41447;DHT22;27185;52.040;4.490;2024-02-23T17:45:46;8.80;99.90
41447;DHT22;27185;52.040;4.490;2024-02-23T17:48:32;8.70;99.90
41447;DHT22;27185;52.040;4.490;2024-02-23T17:51:18;8.70;99.90
41447;DHT22;27185;52.040;4.490;2024-02-23T17:54:03;8.60;99.90
41447;DHT22;27185;52.040;4.490;2024-02-23T17:56:50;8.60;99.90
41447;DHT22;27185;52.040;4.490;2024-02-23T17:59:37;8.50;99.90
41447;DHT22;27185;52.040;4.490;2024-02-23T18:02:23;8.50;99.90
41447;DHT22;27185;52.040;4.490;2024-02-23T18:05:09;8.50;99.90
41447;DHT22;27185;52.040;4.490;2024-02-23T18:07:55;8.50;99.90
41447;DHT22;27185;52.040;4.490;2024-02-23T18:10:41;8.40;99.90
41447;DHT22;27185;52.040;4.490;2024-02-23T18:13:29;8.40;99.90
41447;DHT22;27185;52.040;4.490;2024-02-23T18:16:15;8.30;99.90
41447;DHT22;27185;52.040;4.490;2024-02-23T18:19:03;8.30;99.90
41447;DHT22;27185;52.040;4.490;2024-02-23T18:21:49;8.30;99.90
41447;DHT22;27185;52.040;4.490;2024-02-23T18:24:35;8.20;99.90
41447;DHT22;27185;52.040;4.490;2024-02-23T18:27:21;8.20;99.90
41447;DHT22;27185;52.040;4.490;2024-02-23T18:30:10;8.20;99.90
41447;DHT22;27185;52.040;4.490;2024-02-23T18:32:56;8.10;99.90
41447;DHT22;27185;52.040;4.490;2024-02-23T18:35:42;8.10;99.90
41447;DHT22;27185;52.040;4.490;2024-02-23T18:38:28;8.10;99.90